sensor_id;sensor_type;location;lat;lon;timestamp;temperature;humidity
2867;DHT22;1441;48.886;8.728;2023-09-12T00:00:48;20.50;92.60
2867;DHT22;1441;48.886;8.728;2023-09-12T00:03:14;20.50;92.90
2867;DHT22;1441;48.886;8.728;2023-09-12T00:05:39;20.50;92.80
2867;DHT22;1441;48.886;8.728;2023-09-12T00:08:06;20.50;92.70
2867;DHT22;1441;48.886;8.728;2023-09-12T00:10:31;20.50;92.70
2867;DHT22;1441;48.886;8.728;2023-09-12T00:12:58;20.50;93.10
2867;DHT22;1441;48.886;8.728;2023-09-12T00:15:26;20.40;92.90
2867;DHT22;1441;48.886;8.728;2023-09-12T00:17:51;20.40;93.20
2867;DHT22;1441;48.886;8.728;2023-09-12T00:20:17;20.40;93.40
2867;DHT22;1441;48.886;8.728;2023-09-12T00:22:42;20.40;93.40
2867;DHT22;1441;48.886;8.728;2023-09-12T00:25:08;20.40;93.60
2867;DHT22;1441;48.886;8.728;2023-09-12T00:27:34;20.30;93.40
2867;DHT22;1441;48.886;8.728;2023-09-12T00:29:59;20.30;93.70
2867;DHT22;1441;48.886;8.728;2023-09-12T00:32:25;20.30;93.70
2867;DHT22;1441;48.886;8.728;2023-09-12T00:34:50;20.30;93.70
2867;DHT22;1441;48.886;8.728;2023-09-12T00:37:16;20.20;93.60
2867;DHT22;1441;48.886;8.728;2023-09-12T00:39:41;20.20;94.10
2867;DHT22;1441;48.886;8.728;2023-09-12T00:42:07;20.20;94.30
2867;DHT22;1441;48.886;8.728;2023-09-12T00:44:33;20.10;94.40
2867;DHT22;1441;48.886;8.728;2023-09-12T00:47:00;20.10;94.60
2867;DHT22;1441;48.886;8.728;2023-09-12T00:49:27;20.00;94.60
2867;DHT22;1441;48.886;8.728;2023-09-12T00:51:54;20.10;94.80
2867;DHT22;1441;48.886;8.728;2023-09-12T00:54:21;20.20;94.40
2867;DHT22;1441;48.886;8.728;2023-09-12T00:56:47;20.20;94.60
2867;DHT22;1441;48.886;8.728;2023-09-12T00:59:14;20.20;94.50
2867;DHT22;1441;48.886;8.728;2023-09-12T01:01:41;20.30;94.30
2867;DHT22;1441;48.886;8.728;2023-09-12T01:04:07;20.20;94.60
2867;DHT22;1441;48.886;8.728;2023-09-12T01:06:33;20.00;95.30
2867;DHT22;1441;48.886;8.728;2023-09-12T01:09:00;19.90;95.40
2867;DHT22;1441;48.886;8.728;2023-09-12T01:11:26;19.90;95.30
2867;DHT22;1441;48.886;8.728;2023-09-12T01:13:52;19.90;95.60
2867;DHT22;1441;48.886;8.728;2023-09-12T01:16:17;19.80;95.80
2867;DHT22;1441;48.886;8.728;2023-09-12T01:18:43;19.80;95.80
2867;DHT22;1441;48.886;8.728;2023-09-12T01:26:43;19.70;95.90
2867;DHT22;1441;48.886;8.728;2023-09-12T01:29:13;19.70;96.10
2867;DHT22;1441;48.886;8.728;2023-09-12T01:31:40;19.70;96.50
2867;DHT22;1441;48.886;8.728;2023-09-12T01:34:10;19.70;96.30
2867;DHT22;1441;48.886;8.728;2023-09-12T01:36:36;19.70;96.30
2867;DHT22;1441;48.886;8.728;2023-09-12T01:39:01;19.70;96.30
2867;DHT22;1441;48.886;8.728;2023-09-12T01:41:29;19.60;96.80
2867;DHT22;1441;48.886;8.728;2023-09-12T01:43:56;19.60;96.30
2867;DHT22;1441;48.886;8.728;2023-09-12T01:46:23;19.70;96.50
2867;DHT22;1441;48.886;8.728;2023-09-12T01:48:50;19.80;96.10
2867;DHT22;1441;48.886;8.728;2023-09-12T01:51:18;19.90;95.80
2867;DHT22;1441;48.886;8.728;2023-09-12T01:53:45;19.80;95.80
2867;DHT22;1441;48.886;8.728;2023-09-12T01:56:12;19.80;96.00
2867;DHT22;1441;48.886;8.728;2023-09-12T01:58:38;19.90;95.60
2867;DHT22;1441;48.886;8.728;2023-09-12T02:01:05;19.70;96.00
2867;DHT22;1441;48.886;8.728;2023-09-12T02:03:30;19.50;97.00
2867;DHT22;1441;48.886;8.728;2023-09-12T02:05:56;19.60;96.70
2867;DHT22;1441;48.886;8.728;2023-09-12T02:08:22;19.70;96.50
2867;DHT22;1441;48.886;8.728;2023-09-12T02:10:47;19.60;96.60
2867;DHT22;1441;48.886;8.728;2023-09-12T02:13:13;19.50;97.10
2867;DHT22;1441;48.886;8.728;2023-09-12T02:15:38;19.40;97.30
2867;DHT22;1441;48.886;8.728;2023-09-12T02:18:04;19.40;97.30
2867;DHT22;1441;48.886;8.728;2023-09-12T02:20:30;19.30;97.30
2867;DHT22;1441;48.886;8.728;2023-09-12T02:22:56;19.30;97.60
2867;DHT22;1441;48.886;8.728;2023-09-12T02:25:21;19.30;97.90
2867;DHT22;1441;48.886;8.728;2023-09-12T02:27:47;19.30;98.10
2867;DHT22;1441;48.886;8.728;2023-09-12T02:30:12;19.30;97.80
2867;DHT22;1441;48.886;8.728;2023-09-12T02:32:38;19.20;97.90
2867;DHT22;1441;48.886;8.728;2023-09-12T02:35:04;19.20;98.30
2867;DHT22;1441;48.886;8.728;2023-09-12T02:37:29;19.10;98.60
2867;DHT22;1441;48.886;8.728;2023-09-12T02:39:55;19.10;98.80
2867;DHT22;1441;48.886;8.728;2023-09-12T02:42:20;19.10;98.80
2867;DHT22;1441;48.886;8.728;2023-09-12T02:44:46;19.10;98.70
2867;DHT22;1441;48.886;8.728;2023-09-12T02:47:11;19.30;98.30
2867;DHT22;1441;48.886;8.728;2023-09-12T02:49:37;19.20;98.50
2867;DHT22;1441;48.886;8.728;2023-09-12T02:52:02;19.20;98.50
2867;DHT22;1441;48.886;8.728;2023-09-12T02:54:28;19.20;98.60
2867;DHT22;1441;48.886;8.728;2023-09-12T02:56:54;19.20;98.60
2867;DHT22;1441;48.886;8.728;2023-09-12T02:59:19;19.20;98.70
2867;DHT22;1441;48.886;8.728;2023-09-12T03:01:45;19.20;98.60
2867;DHT22;1441;48.886;8.728;2023-09-12T03:04:10;19.10;99.00
2867;DHT22;1441;48.886;8.728;2023-09-12T03:06:36;19.00;99.40
2867;DHT22;1441;48.886;8.728;2023-09-12T03:09:01;19.00;99.10
2867;DHT22;1441;48.886;8.728;2023-09-12T03:11:28;19.00;99.40
2867;DHT22;1441;48.886;8.728;2023-09-12T03:13:55;19.00;99.40
2867;DHT22;1441;48.886;8.728;2023-09-12T03:16:20;19.10;98.70
2867;DHT22;1441;48.886;8.728;2023-09-12T03:18:46;19.10;98.90
2867;DHT22;1441;48.886;8.728;2023-09-12T03:21:12;19.00;99.10
2867;DHT22;1441;48.886;8.728;2023-09-12T03:23:37;18.90;99.20
2867;DHT22;1441;48.886;8.728;2023-09-12T03:26:04;18.90;99.70
2867;DHT22;1441;48.886;8.728;2023-09-12T03:28:30;18.90;99.60
2867;DHT22;1441;48.886;8.728;2023-09-12T03:31:12;18.90;99.60
2867;DHT22;1441;48.886;8.728;2023-09-12T03:33:39;18.90;99.60
2867;DHT22;1441;48.886;8.728;2023-09-12T03:36:06;19.00;99.20
2867;DHT22;1441;48.886;8.728;2023-09-12T03:38:32;19.10;99.10
2867;DHT22;1441;48.886;8.728;2023-09-12T03:40:58;19.10;98.80
2867;DHT22;1441;48.886;8.728;2023-09-12T03:43:24;19.00;99.20
2867;DHT22;1441;48.886;8.728;2023-09-12T03:45:49;19.00;99.40
2867;DHT22;1441;48.886;8.728;2023-09-12T03:48:15;18.90;99.70
2867;DHT22;1441;48.886;8.728;2023-09-12T03:50:40;19.00;99.40
2867;DHT22;1441;48.886;8.728;2023-09-12T03:53:06;19.00;99.70
2867;DHT22;1441;48.886;8.728;2023-09-12T03:55:32;18.90;99.80
2867;DHT22;1441;48.886;8.728;2023-09-12T03:57:57;18.90;99.90
2867;DHT22;1441;48.886;8.728;2023-09-12T04:00:23;18.80;99.90
2867;DHT22;1441;48.886;8.728;2023-09-12T04:02:48;19.00;99.50
2867;DHT22;1441;48.886;8.728;2023-09-12T04:05:14;19.10;99.10
2867;DHT22;1441;48.886;8.728;2023-09-12T04:07:40;19.10;99.00
2867;DHT22;1441;48.886;8.728;2023-09-12T04:10:05;19.10;99.20
2867;DHT22;1441;48.886;8.728;2023-09-12T04:12:31;19.20;98.90
2867;DHT22;1441;48.886;8.728;2023-09-12T04:14:56;19.40;98.50
2867;DHT22;1441;48.886;8.728;2023-09-12T04:17:22;19.30;98.50
2867;DHT22;1441;48.886;8.728;2023-09-12T04:19:48;19.20;98.90
2867;DHT22;1441;48.886;8.728;2023-09-12T04:22:13;19.00;99.40
2867;DHT22;1441;48.886;8.728;2023-09-12T04:24:39;19.00;99.60
2867;DHT22;1441;48.886;8.728;2023-09-12T04:27:04;19.00;99.80
2867;DHT22;1441;48.886;8.728;2023-09-12T04:29:35;19.00;99.80
2867;DHT22;1441;48.886;8.728;2023-09-12T04:32:04;19.20;99.50
2867;DHT22;1441;48.886;8.728;2023-09-12T04:34:30;19.30;99.00
2867;DHT22;1441;48.886;8.728;2023-09-12T04:36:56;19.30;98.90
2867;DHT22;1441;48.886;8.728;2023-09-12T04:39:21;19.20;99.10
2867;DHT22;1441;48.886;8.728;2023-09-12T04:41:47;19.20;99.10
2867;DHT22;1441;48.886;8.728;2023-09-12T04:44:12;19.10;99.50
2867;DHT22;1441;48.886;8.728;2023-09-12T04:46:38;19.30;99.30
2867;DHT22;1441;48.886;8.728;2023-09-12T04:49:04;19.30;98.90
2867;DHT22;1441;48.886;8.728;2023-09-12T04:51:29;19.20;99.20
2867;DHT22;1441;48.886;8.728;2023-09-12T04:53:55;19.10;99.90
2867;DHT22;1441;48.886;8.728;2023-09-12T04:56:21;19.00;99.80
2867;DHT22;1441;48.886;8.728;2023-09-12T04:58:49;19.00;99.90
2867;DHT22;1441;48.886;8.728;2023-09-12T05:01:15;19.00;99.80
2867;DHT22;1441;48.886;8.728;2023-09-12T05:03:40;19.00;99.90
2867;DHT22;1441;48.886;8.728;2023-09-12T05:06:06;18.90;99.90
2867;DHT22;1441;48.886;8.728;2023-09-12T05:08:31;19.00;99.90
2867;DHT22;1441;48.886;8.728;2023-09-12T05:10:57;19.00;99.90
2867;DHT22;1441;48.886;8.728;2023-09-12T05:13:22;19.00;99.90
2867;DHT22;1441;48.886;8.728;2023-09-12T05:15:48;19.00;99.90
2867;DHT22;1441;48.886;8.728;2023-09-12T05:18:13;19.10;99.90
2867;DHT22;1441;48.886;8.728;2023-09-12T05:20:39;19.10;99.90
2867;DHT22;1441;48.886;8.728;2023-09-12T05:23:05;19.10;99.80
2867;DHT22;1441;48.886;8.728;2023-09-12T05:25:31;19.20;99.50
2867;DHT22;1441;48.886;8.728;2023-09-12T05:27:56;19.20;99.20
2867;DHT22;1441;48.886;8.728;2023-09-12T05:30:22;19.10;99.30
2867;DHT22;1441;48.886;8.728;2023-09-12T05:32:49;19.10;99.50
2867;DHT22;1441;48.886;8.728;2023-09-12T05:35:14;19.10;99.20
2867;DHT22;1441;48.886;8.728;2023-09-12T05:37:40;19.10;99.60
2867;DHT22;1441;48.886;8.728;2023-09-12T05:40:06;19.10;99.50
2867;DHT22;1441;48.886;8.728;2023-09-12T05:42:32;19.30;99.20
2867;DHT22;1441;48.886;8.728;2023-09-12T05:44:57;19.60;98.10
2867;DHT22;1441;48.886;8.728;2023-09-12T05:47:23;19.80;97.50
2867;DHT22;1441;48.886;8.728;2023-09-12T05:49:49;19.70;97.50
2867;DHT22;1441;48.886;8.728;2023-09-12T05:52:15;19.50;98.40
2867;DHT22;1441;48.886;8.728;2023-09-12T05:54:41;19.50;98.50
2867;DHT22;1441;48.886;8.728;2023-09-12T05:57:07;19.50;99.00
2867;DHT22;1441;48.886;8.728;2023-09-12T05:59:36;19.50;99.20
2867;DHT22;1441;48.886;8.728;2023-09-12T06:02:02;19.50;99.40
2867;DHT22;1441;48.886;8.728;2023-09-12T06:04:28;19.50;98.40
2867;DHT22;1441;48.886;8.728;2023-09-12T06:06:53;19.50;98.60
2867;DHT22;1441;48.886;8.728;2023-09-12T06:09:19;19.50;98.80
2867;DHT22;1441;48.886;8.728;2023-09-12T06:11:44;19.50;97.80
2867;DHT22;1441;48.886;8.728;2023-09-12T06:14:10;19.60;97.80
2867;DHT22;1441;48.886;8.728;2023-09-12T06:16:35;19.60;98.20
2867;DHT22;1441;48.886;8.728;2023-09-12T06:19:01;19.60;98.20
2867;DHT22;1441;48.886;8.728;2023-09-12T06:21:26;19.80;97.80
2867;DHT22;1441;48.886;8.728;2023-09-12T06:24:11;20.00;96.90
2867;DHT22;1441;48.886;8.728;2023-09-12T06:26:37;20.20;96.40
2867;DHT22;1441;48.886;8.728;2023-09-12T06:29:03;20.40;95.30
2867;DHT22;1441;48.886;8.728;2023-09-12T06:31:29;20.60;95.20
2867;DHT22;1441;48.886;8.728;2023-09-12T06:33:55;20.60;95.50
2867;DHT22;1441;48.886;8.728;2023-09-12T06:36:20;20.70;95.40
2867;DHT22;1441;48.886;8.728;2023-09-12T06:38:46;20.90;95.00
2867;DHT22;1441;48.886;8.728;2023-09-12T06:41:11;20.90;95.30
2867;DHT22;1441;48.886;8.728;2023-09-12T06:43:37;21.10;94.80
2867;DHT22;1441;48.886;8.728;2023-09-12T06:46:02;21.50;93.40
2867;DHT22;1441;48.886;8.728;2023-09-12T06:48:28;21.70;92.40
2867;DHT22;1441;48.886;8.728;2023-09-12T06:50:56;21.80;92.10
2867;DHT22;1441;48.886;8.728;2023-09-12T06:53:22;21.60;93.40
2867;DHT22;1441;48.886;8.728;2023-09-12T06:55:48;21.40;93.70
2867;DHT22;1441;48.886;8.728;2023-09-12T06:58:13;21.40;93.40
2867;DHT22;1441;48.886;8.728;2023-09-12T07:00:39;21.40;92.30
2867;DHT22;1441;48.886;8.728;2023-09-12T07:03:04;21.90;90.90
2867;DHT22;1441;48.886;8.728;2023-09-12T07:05:30;23.50;85.90
2867;DHT22;1441;48.886;8.728;2023-09-12T07:07:55;24.90;81.30
2867;DHT22;1441;48.886;8.728;2023-09-12T07:10:21;26.00;77.60
2867;DHT22;1441;48.886;8.728;2023-09-12T07:12:47;27.00;75.00
2867;DHT22;1441;48.886;8.728;2023-09-12T07:15:12;27.70;73.90
2867;DHT22;1441;48.886;8.728;2023-09-12T07:17:38;28.80;71.00
2867;DHT22;1441;48.886;8.728;2023-09-12T07:20:05;29.20;70.10
2867;DHT22;1441;48.886;8.728;2023-09-12T07:22:35;29.00;70.10
2867;DHT22;1441;48.886;8.728;2023-09-12T07:25:00;29.00;70.30
2867;DHT22;1441;48.886;8.728;2023-09-12T07:27:26;29.00;70.20
2867;DHT22;1441;48.886;8.728;2023-09-12T07:29:53;29.30;70.30
2867;DHT22;1441;48.886;8.728;2023-09-12T07:32:18;29.70;68.70
2867;DHT22;1441;48.886;8.728;2023-09-12T07:34:45;29.70;68.50
2867;DHT22;1441;48.886;8.728;2023-09-12T07:37:14;30.00;68.00
2867;DHT22;1441;48.886;8.728;2023-09-12T07:39:39;30.30;66.90
2867;DHT22;1441;48.886;8.728;2023-09-12T07:42:05;30.80;66.00
2867;DHT22;1441;48.886;8.728;2023-09-12T07:44:30;30.90;66.00
2867;DHT22;1441;48.886;8.728;2023-09-12T07:46:56;31.40;65.00
2867;DHT22;1441;48.886;8.728;2023-09-12T07:49:21;32.20;62.90
2867;DHT22;1441;48.886;8.728;2023-09-12T07:51:47;32.20;63.10
2867;DHT22;1441;48.886;8.728;2023-09-12T07:54:12;32.60;61.90
2867;DHT22;1441;48.886;8.728;2023-09-12T07:56:38;32.40;62.20
2867;DHT22;1441;48.886;8.728;2023-09-12T07:59:04;32.50;62.40
2867;DHT22;1441;48.886;8.728;2023-09-12T08:01:29;33.10;61.60
2867;DHT22;1441;48.886;8.728;2023-09-12T08:03:55;33.10;61.40
2867;DHT22;1441;48.886;8.728;2023-09-12T08:06:21;33.10;61.40
2867;DHT22;1441;48.886;8.728;2023-09-12T08:08:49;33.40;60.90
2867;DHT22;1441;48.886;8.728;2023-09-12T08:11:14;33.90;60.00
2867;DHT22;1441;48.886;8.728;2023-09-12T08:13:40;34.20;59.90
2867;DHT22;1441;48.886;8.728;2023-09-12T08:16:05;35.00;57.70
2867;DHT22;1441;48.886;8.728;2023-09-12T08:18:31;35.60;57.30
2867;DHT22;1441;48.886;8.728;2023-09-12T08:20:57;35.30;57.90
2867;DHT22;1441;48.886;8.728;2023-09-12T08:23:22;36.20;56.30
2867;DHT22;1441;48.886;8.728;2023-09-12T08:25:48;35.80;56.20
2867;DHT22;1441;48.886;8.728;2023-09-12T08:28:14;35.40;56.40
2867;DHT22;1441;48.886;8.728;2023-09-12T08:30:39;35.30;56.60
2867;DHT22;1441;48.886;8.728;2023-09-12T08:33:05;34.90;57.30
2867;DHT22;1441;48.886;8.728;2023-09-12T08:35:32;34.80;57.50
2867;DHT22;1441;48.886;8.728;2023-09-12T08:37:58;35.10;57.50
2867;DHT22;1441;48.886;8.728;2023-09-12T08:40:23;36.30;56.00
2867;DHT22;1441;48.886;8.728;2023-09-12T08:42:50;36.70;55.40
2867;DHT22;1441;48.886;8.728;2023-09-12T08:45:18;36.80;55.00
2867;DHT22;1441;48.886;8.728;2023-09-12T08:47:46;36.30;56.50
2867;DHT22;1441;48.886;8.728;2023-09-12T08:50:13;36.30;57.10
2867;DHT22;1441;48.886;8.728;2023-09-12T08:52:43;36.30;56.90
2867;DHT22;1441;48.886;8.728;2023-09-12T08:55:09;36.80;56.30
2867;DHT22;1441;48.886;8.728;2023-09-12T08:57:40;36.30;56.90
2867;DHT22;1441;48.886;8.728;2023-09-12T09:00:07;36.50;57.40
2867;DHT22;1441;48.886;8.728;2023-09-12T09:02:39;37.10;55.90
2867;DHT22;1441;48.886;8.728;2023-09-12T09:05:06;36.90;56.50
2867;DHT22;1441;48.886;8.728;2023-09-12T09:07:36;36.60;56.70
2867;DHT22;1441;48.886;8.728;2023-09-12T09:10:04;37.60;53.30
2867;DHT22;1441;48.886;8.728;2023-09-12T09:12:31;37.20;55.20
2867;DHT22;1441;48.886;8.728;2023-09-12T09:14:56;36.80;55.10
2867;DHT22;1441;48.886;8.728;2023-09-12T09:17:23;36.30;56.40
2867;DHT22;1441;48.886;8.728;2023-09-12T09:19:49;36.40;55.50
2867;DHT22;1441;48.886;8.728;2023-09-12T09:22:14;36.30;53.70
2867;DHT22;1441;48.886;8.728;2023-09-12T09:24:40;36.60;53.30
2867;DHT22;1441;48.886;8.728;2023-09-12T09:27:06;36.60;52.50
2867;DHT22;1441;48.886;8.728;2023-09-12T09:29:31;37.00;52.80
2867;DHT22;1441;48.886;8.728;2023-09-12T09:32:00;36.90;51.60
2867;DHT22;1441;48.886;8.728;2023-09-12T09:34:26;38.10;49.40
2867;DHT22;1441;48.886;8.728;2023-09-12T09:36:57;38.90;49.00
2867;DHT22;1441;48.886;8.728;2023-09-12T09:39:24;38.40;50.70
2867;DHT22;1441;48.886;8.728;2023-09-12T09:41:53;38.00;50.90
2867;DHT22;1441;48.886;8.728;2023-09-12T09:44:21;37.90;51.40
2867;DHT22;1441;48.886;8.728;2023-09-12T09:46:50;38.30;50.80
2867;DHT22;1441;48.886;8.728;2023-09-12T09:49:19;38.20;49.70
2867;DHT22;1441;48.886;8.728;2023-09-12T09:51:45;37.50;51.40
2867;DHT22;1441;48.886;8.728;2023-09-12T09:54:11;37.10;52.10
2867;DHT22;1441;48.886;8.728;2023-09-12T09:56:52;37.50;49.90
2867;DHT22;1441;48.886;8.728;2023-09-12T09:59:23;38.60;48.10
2867;DHT22;1441;48.886;8.728;2023-09-12T10:01:50;38.50;49.40
2867;DHT22;1441;48.886;8.728;2023-09-12T10:04:18;36.80;51.60
2867;DHT22;1441;48.886;8.728;2023-09-12T10:06:45;34.90;54.20
2867;DHT22;1441;48.886;8.728;2023-09-12T10:09:12;33.70;57.70
2867;DHT22;1441;48.886;8.728;2023-09-12T10:11:40;33.10;59.10
2867;DHT22;1441;48.886;8.728;2023-09-12T10:14:07;33.20;59.00
2867;DHT22;1441;48.886;8.728;2023-09-12T10:16:34;33.80;57.40
2867;DHT22;1441;48.886;8.728;2023-09-12T10:19:23;34.20;54.80
2867;DHT22;1441;48.886;8.728;2023-09-12T10:22:20;34.20;57.00
2867;DHT22;1441;48.886;8.728;2023-09-12T10:24:48;33.70;57.40
2867;DHT22;1441;48.886;8.728;2023-09-12T10:27:15;33.50;57.30
2867;DHT22;1441;48.886;8.728;2023-09-12T10:29:40;33.10;54.90
2867;DHT22;1441;48.886;8.728;2023-09-12T10:32:06;32.90;55.50
2867;DHT22;1441;48.886;8.728;2023-09-12T10:34:32;33.20;53.40
2867;DHT22;1441;48.886;8.728;2023-09-12T10:36:58;33.40;53.80
2867;DHT22;1441;48.886;8.728;2023-09-12T10:39:29;33.30;54.00
2867;DHT22;1441;48.886;8.728;2023-09-12T10:41:57;33.10;55.00
2867;DHT22;1441;48.886;8.728;2023-09-12T10:44:23;33.30;56.60
2867;DHT22;1441;48.886;8.728;2023-09-12T10:46:50;33.30;56.70
2867;DHT22;1441;48.886;8.728;2023-09-12T10:49:17;33.30;56.60
2867;DHT22;1441;48.886;8.728;2023-09-12T10:51:46;33.90;52.60
2867;DHT22;1441;48.886;8.728;2023-09-12T10:54:26;33.90;54.10
2867;DHT22;1441;48.886;8.728;2023-09-12T10:57:06;33.80;55.10
2867;DHT22;1441;48.886;8.728;2023-09-12T10:59:32;33.80;52.90
2867;DHT22;1441;48.886;8.728;2023-09-12T11:04:58;33.70;55.80
2867;DHT22;1441;48.886;8.728;2023-09-12T11:07:50;33.80;54.60
2867;DHT22;1441;48.886;8.728;2023-09-12T11:12:42;33.40;56.60
2867;DHT22;1441;48.886;8.728;2023-09-12T11:15:09;33.10;55.70
2867;DHT22;1441;48.886;8.728;2023-09-12T11:17:39;33.10;56.10
2867;DHT22;1441;48.886;8.728;2023-09-12T11:20:05;33.10;55.50
2867;DHT22;1441;48.886;8.728;2023-09-12T11:22:44;33.20;55.70
2867;DHT22;1441;48.886;8.728;2023-09-12T11:30:26;33.60;56.60
2867;DHT22;1441;48.886;8.728;2023-09-12T11:32:53;33.80;56.00
2867;DHT22;1441;48.886;8.728;2023-09-12T11:35:23;33.90;55.70
2867;DHT22;1441;48.886;8.728;2023-09-12T11:37:50;33.90;56.20
2867;DHT22;1441;48.886;8.728;2023-09-12T11:40:18;34.00;55.30
2867;DHT22;1441;48.886;8.728;2023-09-12T11:42:48;34.10;54.90
2867;DHT22;1441;48.886;8.728;2023-09-12T11:45:17;34.00;55.90
2867;DHT22;1441;48.886;8.728;2023-09-12T11:47:44;33.80;57.50
2867;DHT22;1441;48.886;8.728;2023-09-12T11:50:35;33.90;56.30
2867;DHT22;1441;48.886;8.728;2023-09-12T11:53:10;34.10;55.80
2867;DHT22;1441;48.886;8.728;2023-09-12T11:55:50;34.20;56.60
2867;DHT22;1441;48.886;8.728;2023-09-12T11:58:19;34.20;56.30
2867;DHT22;1441;48.886;8.728;2023-09-12T12:00:50;34.40;55.80
2867;DHT22;1441;48.886;8.728;2023-09-12T12:03:17;34.40;55.40
2867;DHT22;1441;48.886;8.728;2023-09-12T12:05:43;34.50;54.40
2867;DHT22;1441;48.886;8.728;2023-09-12T12:08:11;34.30;54.30
2867;DHT22;1441;48.886;8.728;2023-09-12T12:10:36;34.30;54.70
2867;DHT22;1441;48.886;8.728;2023-09-12T12:13:04;34.20;56.10
2867;DHT22;1441;48.886;8.728;2023-09-12T12:15:30;34.40;54.80
2867;DHT22;1441;48.886;8.728;2023-09-12T12:17:56;34.40;54.90
2867;DHT22;1441;48.886;8.728;2023-09-12T12:20:22;34.30;54.40
2867;DHT22;1441;48.886;8.728;2023-09-12T12:22:48;34.20;56.60
2867;DHT22;1441;48.886;8.728;2023-09-12T12:25:14;34.20;56.80
2867;DHT22;1441;48.886;8.728;2023-09-12T12:27:41;34.30;55.40
2867;DHT22;1441;48.886;8.728;2023-09-12T12:30:12;34.30;55.70
2867;DHT22;1441;48.886;8.728;2023-09-12T12:32:46;34.30;55.70
2867;DHT22;1441;48.886;8.728;2023-09-12T12:35:19;34.20;55.00
2867;DHT22;1441;48.886;8.728;2023-09-12T12:37:45;34.10;55.10
2867;DHT22;1441;48.886;8.728;2023-09-12T12:40:13;34.00;55.10
2867;DHT22;1441;48.886;8.728;2023-09-12T12:42:40;34.10;55.00
2867;DHT22;1441;48.886;8.728;2023-09-12T12:45:14;34.30;54.90
2867;DHT22;1441;48.886;8.728;2023-09-12T12:47:40;34.40;54.40
2867;DHT22;1441;48.886;8.728;2023-09-12T12:50:16;34.20;54.30
2867;DHT22;1441;48.886;8.728;2023-09-12T12:52:47;34.40;53.20
2867;DHT22;1441;48.886;8.728;2023-09-12T12:55:13;34.60;52.50
2867;DHT22;1441;48.886;8.728;2023-09-12T12:57:40;34.50;52.30
2867;DHT22;1441;48.886;8.728;2023-09-12T13:00:11;34.50;52.70
2867;DHT22;1441;48.886;8.728;2023-09-12T13:02:41;34.40;53.40
2867;DHT22;1441;48.886;8.728;2023-09-12T13:05:25;34.40;52.10
2867;DHT22;1441;48.886;8.728;2023-09-12T13:07:51;34.40;52.10
2867;DHT22;1441;48.886;8.728;2023-09-12T13:10:18;34.40;52.40
2867;DHT22;1441;48.886;8.728;2023-09-12T13:12:43;34.50;51.10
2867;DHT22;1441;48.886;8.728;2023-09-12T13:15:11;34.50;52.10
2867;DHT22;1441;48.886;8.728;2023-09-12T13:17:37;34.50;50.80
2867;DHT22;1441;48.886;8.728;2023-09-12T13:20:03;34.50;51.00
2867;DHT22;1441;48.886;8.728;2023-09-12T13:22:29;34.50;51.90
2867;DHT22;1441;48.886;8.728;2023-09-12T13:24:54;34.40;52.40
2867;DHT22;1441;48.886;8.728;2023-09-12T13:27:20;34.50;51.50
2867;DHT22;1441;48.886;8.728;2023-09-12T13:29:46;34.40;52.20
2867;DHT22;1441;48.886;8.728;2023-09-12T13:32:13;34.20;50.60
2867;DHT22;1441;48.886;8.728;2023-09-12T13:34:40;34.10;51.50
2867;DHT22;1441;48.886;8.728;2023-09-12T13:37:06;34.10;50.70
2867;DHT22;1441;48.886;8.728;2023-09-12T13:39:31;34.10;51.20
2867;DHT22;1441;48.886;8.728;2023-09-12T13:41:57;34.00;51.40
2867;DHT22;1441;48.886;8.728;2023-09-12T13:44:25;33.40;57.60
2867;DHT22;1441;48.886;8.728;2023-09-12T13:46:50;32.60;56.00
2867;DHT22;1441;48.886;8.728;2023-09-12T13:49:16;32.50;57.30
2867;DHT22;1441;48.886;8.728;2023-09-12T13:51:42;32.40;57.50
2867;DHT22;1441;48.886;8.728;2023-09-12T13:54:07;32.40;56.40
2867;DHT22;1441;48.886;8.728;2023-09-12T13:56:43;32.40;56.60
2867;DHT22;1441;48.886;8.728;2023-09-12T13:59:08;32.50;56.40
2867;DHT22;1441;48.886;8.728;2023-09-12T14:01:34;32.50;56.10
2867;DHT22;1441;48.886;8.728;2023-09-12T14:03:59;32.70;55.90
2867;DHT22;1441;48.886;8.728;2023-09-12T14:06:25;32.10;56.50
2867;DHT22;1441;48.886;8.728;2023-09-12T14:08:52;31.90;57.20
2867;DHT22;1441;48.886;8.728;2023-09-12T14:11:17;32.00;58.10
2867;DHT22;1441;48.886;8.728;2023-09-12T14:13:43;32.00;58.20
2867;DHT22;1441;48.886;8.728;2023-09-12T14:16:08;31.80;57.50
2867;DHT22;1441;48.886;8.728;2023-09-12T14:18:34;31.60;55.60
2867;DHT22;1441;48.886;8.728;2023-09-12T14:20:59;31.60;57.00
2867;DHT22;1441;48.886;8.728;2023-09-12T14:23:25;31.60;57.00
2867;DHT22;1441;48.886;8.728;2023-09-12T14:25:51;31.50;56.80
2867;DHT22;1441;48.886;8.728;2023-09-12T14:28:17;31.40;56.10
2867;DHT22;1441;48.886;8.728;2023-09-12T14:30:42;31.50;56.40
2867;DHT22;1441;48.886;8.728;2023-09-12T14:33:10;31.50;56.70
2867;DHT22;1441;48.886;8.728;2023-09-12T14:35:37;31.50;56.60
2867;DHT22;1441;48.886;8.728;2023-09-12T14:38:03;31.30;56.90
2867;DHT22;1441;48.886;8.728;2023-09-12T14:40:29;31.30;56.20
2867;DHT22;1441;48.886;8.728;2023-09-12T14:42:55;31.30;56.40
2867;DHT22;1441;48.886;8.728;2023-09-12T14:45:21;31.30;56.80
2867;DHT22;1441;48.886;8.728;2023-09-12T14:47:47;31.30;57.00
2867;DHT22;1441;48.886;8.728;2023-09-12T14:50:12;31.20;57.40
2867;DHT22;1441;48.886;8.728;2023-09-12T14:52:38;31.10;57.30
2867;DHT22;1441;48.886;8.728;2023-09-12T14:55:05;31.00;57.50
2867;DHT22;1441;48.886;8.728;2023-09-12T14:57:32;31.20;57.40
2867;DHT22;1441;48.886;8.728;2023-09-12T14:59:58;31.20;57.20
2867;DHT22;1441;48.886;8.728;2023-09-12T15:02:27;31.10;57.00
2867;DHT22;1441;48.886;8.728;2023-09-12T15:05:01;31.00;57.40
2867;DHT22;1441;48.886;8.728;2023-09-12T15:07:29;31.20;56.40
2867;DHT22;1441;48.886;8.728;2023-09-12T15:09:55;31.30;56.70
2867;DHT22;1441;48.886;8.728;2023-09-12T15:12:40;31.30;58.30
2867;DHT22;1441;48.886;8.728;2023-09-12T15:15:06;31.50;55.10
2867;DHT22;1441;48.886;8.728;2023-09-12T15:17:32;31.70;54.80
2867;DHT22;1441;48.886;8.728;2023-09-12T15:19:58;31.70;55.00
2867;DHT22;1441;48.886;8.728;2023-09-12T15:22:23;31.60;57.20
2867;DHT22;1441;48.886;8.728;2023-09-12T15:24:49;31.60;55.20
2867;DHT22;1441;48.886;8.728;2023-09-12T15:27:14;31.60;58.30
2867;DHT22;1441;48.886;8.728;2023-09-12T15:29:40;31.60;56.90
2867;DHT22;1441;48.886;8.728;2023-09-12T15:32:05;31.50;58.30
2867;DHT22;1441;48.886;8.728;2023-09-12T15:34:32;31.70;54.50
2867;DHT22;1441;48.886;8.728;2023-09-12T15:39:33;32.10;53.10
2867;DHT22;1441;48.886;8.728;2023-09-12T15:41:59;31.70;53.50
2867;DHT22;1441;48.886;8.728;2023-09-12T15:44:24;31.50;53.80
2867;DHT22;1441;48.886;8.728;2023-09-12T15:46:51;31.50;54.30
2867;DHT22;1441;48.886;8.728;2023-09-12T15:49:17;31.60;54.50
2867;DHT22;1441;48.886;8.728;2023-09-12T15:51:42;31.50;54.30
2867;DHT22;1441;48.886;8.728;2023-09-12T15:54:08;31.40;54.80
2867;DHT22;1441;48.886;8.728;2023-09-12T15:56:34;31.30;57.10
2867;DHT22;1441;48.886;8.728;2023-09-12T15:58:59;31.40;55.10
2867;DHT22;1441;48.886;8.728;2023-09-12T16:01:26;31.70;53.90
2867;DHT22;1441;48.886;8.728;2023-09-12T16:03:52;31.80;53.90
2867;DHT22;1441;48.886;8.728;2023-09-12T16:06:18;31.60;55.00
2867;DHT22;1441;48.886;8.728;2023-09-12T16:08:47;31.40;54.80
2867;DHT22;1441;48.886;8.728;2023-09-12T16:11:14;31.40;54.90
2867;DHT22;1441;48.886;8.728;2023-09-12T16:13:41;31.40;57.00
2867;DHT22;1441;48.886;8.728;2023-09-12T16:16:06;31.20;55.80
2867;DHT22;1441;48.886;8.728;2023-09-12T16:18:32;31.20;55.20